createdAt,value
2022-08-04T00:00:55.348Z,1
2022-08-04T00:02:38.733Z,1
2022-08-04T00:04:22.138Z,1
2022-08-04T00:07:48.613Z,0
2022-08-04T00:09:31.994Z,0
2022-08-04T00:11:15.412Z,1
2022-08-04T00:12:58.800Z,1
2022-08-04T00:14:42.194Z,1
2022-08-04T00:16:25.599Z,1
2022-08-04T00:18:09.015Z,0
2022-08-04T00:19:52.399Z,1
2022-08-04T00:23:18.870Z,1
2022-08-04T00:25:02.264Z,1
2022-08-04T00:26:45.646Z,1
2022-08-04T00:28:29.068Z,0
2022-08-04T00:30:12.454Z,1
2022-08-04T00:31:55.831Z,1
2022-08-04T00:33:39.233Z,0
2022-08-04T00:35:22.647Z,1
2022-08-04T00:37:06.351Z,0
2022-08-04T00:38:49.747Z,1
2022-08-04T00:40:33.147Z,2
2022-08-04T00:42:16.536Z,0
2022-08-04T00:43:59.931Z,0
2022-08-04T00:45:43.327Z,1
2022-08-04T00:47:26.709Z,1
2022-08-04T00:49:10.109Z,1
2022-08-04T00:50:53.814Z,0
2022-08-04T00:52:37.210Z,1
2022-08-04T00:54:20.638Z,1
2022-08-04T00:56:04.007Z,1
2022-08-04T00:57:47.421Z,0
2022-08-04T00:59:30.803Z,0
2022-08-04T01:01:14.194Z,1
2022-08-04T01:02:57.604Z,1
2022-08-04T01:08:06.856Z,0
2022-08-04T01:09:50.219Z,1
2022-08-04T01:11:33.615Z,1
2022-08-04T01:13:17.008Z,0
2022-08-04T01:15:00.410Z,2
2022-08-04T01:16:43.813Z,1
2022-08-04T01:18:27.203Z,1
2022-08-04T01:20:10.601Z,1
2022-08-04T01:23:37.070Z,0
2022-08-04T01:25:20.472Z,0
2022-08-04T01:27:03.873Z,1
2022-08-04T01:28:47.276Z,1
2022-08-04T01:30:30.655Z,1
2022-08-04T01:32:14.074Z,1
2022-08-04T01:33:57.449Z,1
2022-08-04T01:35:40.860Z,1
2022-08-04T01:39:07.331Z,0
2022-08-04T01:40:50.723Z,1
2022-08-04T01:42:34.126Z,1
2022-08-04T01:44:17.515Z,1
2022-08-04T01:46:00.913Z,1
2022-08-04T01:47:44.334Z,1
2022-08-04T01:49:27.692Z,1
2022-08-04T01:51:11.100Z,1
2022-08-04T01:56:20.336Z,1
2022-08-04T01:58:03.748Z,1
2022-08-04T01:59:47.116Z,1
2022-08-04T02:01:30.519Z,1
2022-08-04T02:03:13.909Z,0
2022-08-04T02:04:57.312Z,0
2022-08-04T02:06:40.706Z,1
2022-08-04T02:08:24.119Z,1
2022-08-04T02:11:50.576Z,1
2022-08-04T02:13:33.969Z,0
2022-08-04T02:15:17.377Z,0
2022-08-04T02:17:00.773Z,1
2022-08-04T02:18:44.161Z,1
2022-08-04T02:20:27.558Z,1
2022-08-04T02:22:11.010Z,1
2022-08-04T02:23:54.374Z,0
2022-08-04T02:25:37.749Z,2
2022-08-04T02:27:21.465Z,1
2022-08-04T02:29:04.855Z,1
2022-08-04T02:30:48.248Z,1
2022-08-04T02:32:31.649Z,1
2022-08-04T02:34:15.031Z,1
2022-08-04T02:35:58.435Z,1
2022-08-04T02:37:41.820Z,1
2022-08-04T02:39:25.244Z,1
2022-08-04T02:44:34.479Z,0
2022-08-04T02:46:17.855Z,1
2022-08-04T02:48:01.259Z,1
2022-08-04T02:49:44.671Z,1
2022-08-04T02:51:28.062Z,1
2022-08-04T02:53:11.483Z,0
2022-08-04T02:54:54.860Z,1
2022-08-04T02:56:38.246Z,0
2022-08-04T03:00:04.741Z,1
2022-08-04T03:01:48.133Z,1
2022-08-04T03:03:31.505Z,1
2022-08-04T03:05:14.910Z,1
2022-08-04T03:06:58.304Z,1
2022-08-04T03:08:41.743Z,0
2022-08-04T03:10:25.098Z,1
2022-08-04T03:12:08.497Z,1
2022-08-04T03:15:34.973Z,0
2022-08-04T03:17:18.365Z,0
2022-08-04T03:19:01.777Z,1
2022-08-04T03:20:45.168Z,1
2022-08-04T03:22:28.556Z,1
2022-08-04T03:24:12.008Z,1
2022-08-04T03:25:55.351Z,1
2022-08-04T03:27:38.735Z,0
2022-08-04T03:32:47.986Z,1
2022-08-04T03:34:31.386Z,1
2022-08-04T03:36:14.786Z,2
2022-08-04T03:37:58.164Z,2
2022-08-04T03:39:41.567Z,2
2022-08-04T03:41:24.951Z,2
2022-08-04T03:43:08.375Z,2
2022-08-04T03:44:51.758Z,2
2022-08-04T03:50:00.999Z,2
2022-08-04T03:51:44.393Z,3
2022-08-04T03:53:27.786Z,3
2022-08-04T03:55:11.180Z,3
2022-08-04T03:56:54.587Z,4
2022-08-04T03:58:37.982Z,4
2022-08-04T04:00:21.384Z,4
2022-08-04T04:02:04.774Z,5
2022-08-04T04:07:14.029Z,7
2022-08-04T04:08:57.412Z,6
2022-08-04T04:10:40.814Z,8
2022-08-04T04:12:24.216Z,12
2022-08-04T04:14:07.604Z,16
2022-08-04T04:15:51.008Z,18
2022-08-04T04:17:34.398Z,19
2022-08-04T04:19:17.795Z,20
2022-08-04T04:24:27.030Z,24
2022-08-04T04:26:10.421Z,26
2022-08-04T04:27:53.827Z,27
2022-08-04T04:29:37.233Z,30
2022-08-04T04:31:20.630Z,32
2022-08-04T04:33:04.058Z,32
2022-08-04T04:34:47.413Z,34
2022-08-04T04:36:30.820Z,35
2022-08-04T04:38:14.203Z,39
2022-08-04T04:39:57.909Z,40
2022-08-04T04:41:41.317Z,41
2022-08-04T04:43:24.715Z,42
2022-08-04T04:45:08.114Z,43
2022-08-04T04:46:51.496Z,45
2022-08-04T04:48:34.896Z,48
2022-08-04T04:50:18.285Z,49
2022-08-04T04:52:01.684Z,51
2022-08-04T04:53:45.077Z,55
2022-08-04T04:57:11.559Z,60
2022-08-04T04:58:54.947Z,64
2022-08-04T05:00:38.341Z,70
2022-08-04T05:02:21.759Z,83
2022-08-04T05:04:05.139Z,100
2022-08-04T05:05:48.541Z,113
2022-08-04T05:07:31.934Z,122
2022-08-04T05:09:15.322Z,131
2022-08-04T05:14:24.574Z,152
2022-08-04T05:16:07.973Z,160
2022-08-04T05:17:51.383Z,169
2022-08-04T05:19:34.778Z,176
2022-08-04T05:21:18.185Z,205
2022-08-04T05:23:01.556Z,370
2022-08-04T05:24:44.952Z,271
2022-08-04T05:26:28.357Z,369
2022-08-04T05:28:11.747Z,381
2022-08-04T05:31:38.864Z,403
2022-08-04T05:33:22.254Z,413
2022-08-04T05:35:05.639Z,433
2022-08-04T05:36:49.018Z,428
2022-08-04T05:38:32.440Z,431
2022-08-04T05:40:15.818Z,444
2022-08-04T05:41:59.227Z,447
2022-08-04T05:47:08.506Z,464
2022-08-04T05:48:51.861Z,468
2022-08-04T05:50:35.271Z,482
2022-08-04T05:52:18.660Z,485
2022-08-04T05:54:02.045Z,486
2022-08-04T05:55:45.443Z,476
2022-08-04T05:57:28.857Z,483
2022-08-04T05:59:12.265Z,486
2022-08-04T06:04:21.483Z,501
2022-08-04T06:06:04.862Z,500
2022-08-04T06:07:48.262Z,504
2022-08-04T06:09:31.668Z,515
2022-08-04T06:11:15.083Z,522
2022-08-04T06:12:58.470Z,514
2022-08-04T06:14:41.862Z,520
2022-08-04T06:16:25.250Z,523
2022-08-04T06:18:08.956Z,529
2022-08-04T06:19:52.360Z,525
2022-08-04T06:21:35.740Z,536
2022-08-04T06:23:19.144Z,529
2022-08-04T06:25:02.549Z,541
2022-08-04T06:26:45.927Z,543
2022-08-04T06:28:29.341Z,546
2022-08-04T06:30:12.736Z,531
2022-08-04T06:33:39.194Z,421
2022-08-04T06:35:22.601Z,424
2022-08-04T06:37:06.017Z,429
2022-08-04T06:38:49.385Z,435
2022-08-04T06:40:32.796Z,439
2022-08-04T06:42:16.183Z,442
2022-08-04T06:43:59.577Z,440
2022-08-04T06:45:42.979Z,444
2022-08-04T06:49:09.468Z,451
2022-08-04T06:50:52.847Z,449
2022-08-04T06:52:36.244Z,458
2022-08-04T06:54:19.640Z,462
2022-08-04T06:56:03.035Z,467
2022-08-04T06:57:46.444Z,472
2022-08-04T06:59:29.819Z,475
2022-08-04T07:01:13.226Z,478
2022-08-04T07:02:56.927Z,483
2022-08-04T07:04:40.318Z,487
2022-08-04T07:06:23.728Z,491
2022-08-04T07:08:07.130Z,496
2022-08-04T07:09:50.530Z,500
2022-08-04T07:11:33.905Z,503
2022-08-04T07:13:17.304Z,506
2022-08-04T07:15:00.700Z,509
2022-08-04T07:16:44.414Z,513
2022-08-04T07:18:27.804Z,516
2022-08-04T07:20:11.205Z,519
2022-08-04T07:21:54.597Z,523
2022-08-04T07:23:37.998Z,526
2022-08-04T07:25:21.394Z,530
2022-08-04T07:27:04.812Z,533
2022-08-04T07:28:48.216Z,536
2022-08-04T07:32:14.681Z,543
2022-08-04T07:33:58.049Z,547
2022-08-04T07:35:41.456Z,551
2022-08-04T07:37:24.850Z,556
2022-08-04T07:39:08.254Z,561
2022-08-04T07:40:51.646Z,566
2022-08-04T07:42:35.041Z,569
2022-08-04T07:44:18.432Z,571
2022-08-04T07:49:27.689Z,583
2022-08-04T07:51:11.067Z,588
2022-08-04T07:52:54.472Z,591
2022-08-04T07:54:37.868Z,595
2022-08-04T07:56:21.277Z,598
2022-08-04T07:58:04.664Z,604
2022-08-04T07:59:48.066Z,607
2022-08-04T08:01:31.455Z,614
2022-08-04T08:04:57.934Z,624
2022-08-04T08:06:41.332Z,628
2022-08-04T08:08:24.727Z,634
2022-08-04T08:10:08.129Z,637
2022-08-04T08:11:51.515Z,642
2022-08-04T08:13:34.928Z,648
2022-08-04T08:15:18.308Z,650
2022-08-04T08:17:01.706Z,651
2022-08-04T08:22:10.960Z,659
2022-08-04T08:23:54.352Z,659
2022-08-04T08:25:37.751Z,662
2022-08-04T08:27:21.186Z,665
2022-08-04T08:29:04.557Z,667
2022-08-04T08:30:47.941Z,672
2022-08-04T08:32:31.335Z,673
2022-08-04T08:34:14.741Z,678
2022-08-04T08:37:41.222Z,688
2022-08-04T08:39:24.601Z,687
2022-08-04T08:41:08.046Z,684
2022-08-04T08:42:51.395Z,689
2022-08-04T08:44:34.806Z,697
2022-08-04T08:46:18.188Z,705
2022-08-04T08:48:01.587Z,709
2022-08-04T08:49:44.993Z,712
2022-08-04T08:54:54.243Z,712
2022-08-04T08:56:37.644Z,716
2022-08-04T08:58:21.024Z,718
2022-08-04T09:00:04.416Z,719
2022-08-04T09:01:47.820Z,720
2022-08-04T09:03:31.220Z,723
2022-08-04T09:05:14.623Z,724
2022-08-04T09:06:58.042Z,724
2022-08-04T09:10:24.501Z,726
2022-08-04T09:12:07.886Z,727
2022-08-04T09:13:51.277Z,727
2022-08-04T09:15:34.677Z,726
2022-08-04T09:17:18.081Z,725
2022-08-04T09:19:01.472Z,728
2022-08-04T09:20:44.873Z,730
2022-08-04T09:22:28.258Z,732
2022-08-04T09:25:54.731Z,738
2022-08-04T09:27:38.145Z,741
2022-08-04T09:29:21.563Z,742
2022-08-04T09:31:04.956Z,745
2022-08-04T09:32:48.339Z,747
2022-08-04T09:34:31.723Z,747
2022-08-04T09:36:15.125Z,746
2022-08-04T09:37:58.519Z,736
2022-08-04T09:43:07.761Z,750
2022-08-04T09:44:51.154Z,752
2022-08-04T09:46:34.555Z,752
2022-08-04T09:48:17.945Z,754
2022-08-04T09:50:01.355Z,755
2022-08-04T09:51:44.745Z,757
2022-08-04T09:53:28.143Z,757
2022-08-04T09:55:11.527Z,759
2022-08-04T09:58:38.009Z,761
2022-08-04T10:00:21.409Z,766
2022-08-04T10:02:04.796Z,752
2022-08-04T10:03:48.202Z,751
2022-08-04T10:05:31.591Z,747
2022-08-04T10:07:14.996Z,743
2022-08-04T10:08:58.391Z,742
2022-08-04T10:10:42.037Z,742
2022-08-04T10:12:25.499Z,742
2022-08-04T10:14:08.885Z,744
2022-08-04T10:15:52.288Z,744
2022-08-04T10:17:35.686Z,665
2022-08-04T10:19:19.073Z,663
2022-08-04T10:21:02.464Z,672
2022-08-04T10:22:45.862Z,680
2022-08-04T10:24:29.262Z,679
2022-08-04T10:29:38.506Z,691
2022-08-04T10:31:21.904Z,690
2022-08-04T10:33:05.302Z,691
2022-08-04T10:34:48.720Z,692
2022-08-04T10:36:32.080Z,692
2022-08-04T10:38:15.486Z,694
2022-08-04T10:39:58.898Z,696
2022-08-04T10:41:42.274Z,699
2022-08-04T10:46:51.518Z,707
2022-08-04T10:48:34.912Z,708
2022-08-04T10:50:18.307Z,713
2022-08-04T10:52:01.702Z,715
2022-08-04T10:53:45.114Z,707
2022-08-04T10:55:28.497Z,711
2022-08-04T10:57:11.912Z,716
2022-08-04T10:58:55.273Z,721
2022-08-04T11:02:21.766Z,725
2022-08-04T11:04:05.161Z,729
2022-08-04T11:05:48.572Z,731
2022-08-04T11:07:31.959Z,732
2022-08-04T11:09:15.364Z,734
2022-08-04T11:10:58.753Z,746
2022-08-04T11:12:42.138Z,748
2022-08-04T11:14:25.538Z,748
2022-08-04T11:17:52.012Z,753
2022-08-04T11:19:35.409Z,753
2022-08-04T11:21:18.820Z,753
2022-08-04T11:23:02.195Z,753
2022-08-04T11:24:45.595Z,754
2022-08-04T11:26:28.974Z,754
2022-08-04T11:28:12.369Z,755
2022-08-04T11:29:55.769Z,755
2022-08-04T11:35:05.034Z,757
2022-08-04T11:36:48.415Z,758
2022-08-04T11:38:31.802Z,758
2022-08-04T11:40:15.230Z,761
2022-08-04T11:41:58.617Z,762
2022-08-04T11:43:41.990Z,768
2022-08-04T11:45:25.387Z,767
2022-08-04T11:47:08.817Z,769
2022-08-04T11:48:52.484Z,770
2022-08-04T11:50:35.887Z,771
2022-08-04T11:52:19.276Z,772
2022-08-04T11:54:02.705Z,771
2022-08-04T11:55:46.086Z,772
2022-08-04T11:57:29.485Z,770
2022-08-04T11:59:12.863Z,774
2022-08-04T12:00:56.277Z,773
2022-08-04T12:04:22.755Z,772
2022-08-04T12:06:06.129Z,771
2022-08-04T12:07:49.525Z,767
2022-08-04T12:09:32.925Z,769
2022-08-04T12:11:16.328Z,767
2022-08-04T12:12:59.725Z,767
2022-08-04T12:14:43.115Z,767
2022-08-04T12:16:26.510Z,769
2022-08-04T12:19:52.995Z,763
2022-08-04T12:21:36.366Z,761
2022-08-04T12:23:19.770Z,760
2022-08-04T12:25:03.181Z,756
2022-08-04T12:26:46.563Z,750
2022-08-04T12:28:29.976Z,745
2022-08-04T12:30:13.375Z,745
2022-08-04T12:31:56.792Z,743
2022-08-04T12:35:23.225Z,734
2022-08-04T12:37:06.637Z,733
2022-08-04T12:38:50.041Z,731
2022-08-04T12:40:33.426Z,732
2022-08-04T12:42:16.811Z,747
2022-08-04T12:44:00.219Z,752
2022-08-04T12:45:43.616Z,745
2022-08-04T12:47:27.028Z,732
2022-08-04T12:49:10.694Z,737
2022-08-04T12:50:54.100Z,742
2022-08-04T12:52:37.503Z,745
2022-08-04T12:54:20.903Z,741
2022-08-04T12:56:04.302Z,752
2022-08-04T12:57:47.690Z,763
2022-08-04T12:59:31.127Z,773
2022-08-04T13:01:14.492Z,776
2022-08-04T13:04:40.966Z,769
2022-08-04T13:06:24.343Z,760
2022-08-04T13:08:07.754Z,753
2022-08-04T13:09:51.139Z,754
2022-08-04T13:11:34.537Z,747
2022-08-04T13:13:17.936Z,752
2022-08-04T13:15:01.329Z,764
2022-08-04T13:16:44.722Z,775
2022-08-04T13:20:11.215Z,766
2022-08-04T13:21:54.599Z,775
2022-08-04T13:23:37.989Z,783
2022-08-04T13:25:21.435Z,462
2022-08-04T13:27:04.802Z,783
2022-08-04T13:28:48.173Z,783
2022-08-04T13:30:31.584Z,782
2022-08-04T13:32:14.984Z,772
2022-08-04T13:33:58.690Z,783
2022-08-04T13:35:42.089Z,783
2022-08-04T13:37:25.480Z,784
2022-08-04T13:39:08.877Z,782
2022-08-04T13:40:52.267Z,783
2022-08-04T13:42:35.657Z,783
2022-08-04T13:44:19.065Z,783
2022-08-04T13:46:02.445Z,783
2022-08-04T13:49:28.926Z,783
2022-08-04T13:51:12.327Z,784
2022-08-04T13:52:55.762Z,783
2022-08-04T13:54:39.123Z,783
2022-08-04T13:56:22.512Z,782
2022-08-04T13:58:05.910Z,783
2022-08-04T13:59:49.299Z,784
2022-08-04T14:01:32.708Z,782
2022-08-04T14:04:59.166Z,783
2022-08-04T14:06:42.580Z,783
2022-08-04T14:08:26.004Z,783
2022-08-04T14:10:09.355Z,783
2022-08-04T14:11:52.760Z,783
2022-08-04T14:13:36.143Z,783
2022-08-04T14:15:19.543Z,783
2022-08-04T14:18:46.014Z,783
2022-08-04T14:20:29.422Z,783
2022-08-04T14:22:12.810Z,784
2022-08-04T14:23:56.195Z,783
2022-08-04T14:25:39.612Z,783
2022-08-04T14:27:23.012Z,782
2022-08-04T14:29:06.392Z,782
2022-08-04T14:30:49.807Z,783
2022-08-04T14:34:16.256Z,784
2022-08-04T14:35:59.647Z,784
2022-08-04T14:37:43.059Z,783
2022-08-04T14:39:26.454Z,783
2022-08-04T14:41:09.865Z,783
2022-08-04T14:42:53.230Z,783
2022-08-04T14:44:36.638Z,783
2022-08-04T14:46:20.059Z,782
2022-08-04T14:49:46.530Z,783
2022-08-04T14:51:29.908Z,783
2022-08-04T14:53:13.322Z,783
2022-08-04T14:54:56.688Z,783
2022-08-04T14:56:40.120Z,783
2022-08-04T14:58:23.480Z,783
2022-08-04T15:00:06.894Z,782
2022-08-04T15:05:16.130Z,322
2022-08-04T15:06:59.575Z,783
2022-08-04T15:08:42.917Z,783
2022-08-04T15:10:26.320Z,783
2022-08-04T15:12:09.725Z,783
2022-08-04T15:13:53.113Z,784
2022-08-04T15:15:36.497Z,782
2022-08-04T15:17:19.889Z,773
2022-08-04T15:19:03.613Z,783
2022-08-04T15:20:47.007Z,783
2022-08-04T15:22:30.427Z,783
2022-08-04T15:24:13.824Z,783
2022-08-04T15:25:57.196Z,783
2022-08-04T15:27:40.576Z,784
2022-08-04T15:29:23.988Z,783
2022-08-04T15:31:07.389Z,782
2022-08-04T15:34:33.850Z,783
2022-08-04T15:36:17.239Z,783
2022-08-04T15:38:00.634Z,784
2022-08-04T15:39:44.040Z,783
2022-08-04T15:41:27.431Z,782
2022-08-04T15:43:10.820Z,783
2022-08-04T15:50:03.479Z,783
2022-08-04T15:51:46.864Z,783
2022-08-04T15:53:30.272Z,782
2022-08-04T15:55:13.658Z,783
2022-08-04T15:56:57.059Z,783
2022-08-04T15:58:40.451Z,784
2022-08-04T16:00:23.864Z,783
2022-08-04T16:03:50.317Z,783
2022-08-04T16:05:33.714Z,784
2022-08-04T16:07:17.111Z,783
2022-08-04T16:09:00.514Z,784
2022-08-04T16:10:43.950Z,784
2022-08-04T16:12:27.316Z,784
2022-08-04T16:14:10.719Z,784
2022-08-04T16:19:19.951Z,783
2022-08-04T16:21:03.348Z,783
2022-08-04T16:22:46.744Z,784
2022-08-04T16:24:30.123Z,784
2022-08-04T16:26:13.536Z,784
2022-08-04T16:27:56.940Z,784
2022-08-04T16:29:40.329Z,784
2022-08-04T16:33:06.804Z,783
2022-08-04T16:34:50.189Z,784
2022-08-04T16:36:33.605Z,784
2022-08-04T16:38:16.992Z,784
2022-08-04T16:40:00.390Z,784
2022-08-04T16:41:43.777Z,784
2022-08-04T16:43:27.177Z,784
2022-08-04T16:46:53.664Z,784
2022-08-04T16:48:37.052Z,784
2022-08-04T16:50:20.446Z,784
2022-08-04T16:52:03.844Z,783
2022-08-04T16:53:47.245Z,784
2022-08-04T16:55:30.640Z,785
2022-08-04T16:57:14.035Z,784
2022-08-04T17:00:40.509Z,784
2022-08-04T17:02:23.914Z,785
2022-08-04T17:04:07.299Z,784
2022-08-04T17:05:50.700Z,784
2022-08-04T17:07:34.101Z,785
2022-08-04T17:09:17.498Z,785
2022-08-04T17:11:00.906Z,784
2022-08-04T17:14:27.382Z,784
2022-08-04T17:16:10.761Z,784
2022-08-04T17:17:54.151Z,784
2022-08-04T17:19:37.556Z,784
2022-08-04T17:21:20.967Z,785
2022-08-04T17:23:04.350Z,784
2022-08-04T17:24:47.736Z,784
2022-08-04T17:28:14.249Z,784
2022-08-04T17:29:57.649Z,784
2022-08-04T17:31:41.011Z,784
2022-08-04T17:33:24.403Z,784
2022-08-04T17:35:07.811Z,784
2022-08-04T17:36:51.202Z,785
2022-08-04T17:38:34.603Z,784
2022-08-04T17:42:01.064Z,784
2022-08-04T17:43:44.474Z,784
2022-08-04T17:45:27.883Z,784
2022-08-04T17:47:11.302Z,784
2022-08-04T17:48:54.694Z,784
2022-08-04T17:50:38.059Z,644
2022-08-04T17:52:21.484Z,510
2022-08-04T17:55:47.965Z,179
2022-08-04T17:57:31.345Z,166
2022-08-04T17:59:14.728Z,159
2022-08-04T18:00:59.124Z,152
2022-08-04T18:02:41.581Z,146
2022-08-04T18:04:24.917Z,140
2022-08-04T18:06:08.301Z,135
2022-08-04T18:09:34.795Z,126
2022-08-04T18:11:18.181Z,121
2022-08-04T18:13:01.589Z,117
2022-08-04T18:14:44.989Z,113
2022-08-04T18:16:28.408Z,108
2022-08-04T18:18:11.780Z,103
2022-08-04T18:19:55.164Z,98
2022-08-04T18:23:21.672Z,90
2022-08-04T18:25:05.068Z,86
2022-08-04T18:26:48.465Z,80
2022-08-04T18:28:31.829Z,77
2022-08-04T18:30:15.233Z,72
2022-08-04T18:31:58.634Z,67
2022-08-04T18:33:42.060Z,61
2022-08-04T18:37:08.534Z,51
2022-08-04T18:38:51.927Z,46
2022-08-04T18:40:35.299Z,40
2022-08-04T18:42:18.690Z,36
2022-08-04T18:44:02.100Z,29
2022-08-04T18:47:28.873Z,22
2022-08-04T18:52:38.120Z,17
2022-08-04T18:54:21.552Z,16
2022-08-04T18:56:04.932Z,15
2022-08-04T18:57:48.305Z,14
2022-08-04T18:59:31.692Z,12
2022-08-04T19:01:15.107Z,11
2022-08-04T19:02:58.490Z,11
2022-08-04T19:06:24.967Z,7
2022-08-04T19:08:08.735Z,6
2022-08-04T19:09:51.799Z,5
2022-08-04T19:11:35.152Z,4
2022-08-04T19:13:18.554Z,4
2022-08-04T19:15:01.978Z,3
2022-08-04T19:16:45.351Z,3
2022-08-04T19:20:11.815Z,1
2022-08-04T19:21:55.216Z,1
2022-08-04T19:23:38.622Z,1
2022-08-04T19:25:22.107Z,1
2022-08-04T19:27:05.394Z,1
2022-08-04T19:28:48.819Z,1
2022-08-04T19:30:32.205Z,1
2022-08-04T19:33:58.664Z,1
2022-08-04T19:35:42.080Z,1
2022-08-04T19:37:25.453Z,1
2022-08-04T19:39:08.851Z,0
2022-08-04T19:40:52.327Z,0
2022-08-04T19:42:35.652Z,1
2022-08-04T19:44:19.055Z,1
2022-08-04T19:47:45.517Z,1
2022-08-04T19:49:28.905Z,1
2022-08-04T19:51:12.296Z,1
2022-08-04T19:52:55.746Z,1
2022-08-04T19:54:39.107Z,1
2022-08-04T19:56:22.493Z,1
2022-08-04T19:58:05.915Z,0
2022-08-04T20:01:32.359Z,1
2022-08-04T20:03:15.748Z,1
2022-08-04T20:04:59.152Z,1
2022-08-04T20:06:42.593Z,1
2022-08-04T20:08:25.969Z,0
2022-08-04T20:10:09.329Z,178
2022-08-04T20:11:52.779Z,209
2022-08-04T20:13:36.120Z,106
2022-08-04T20:15:19.843Z,208
2022-08-04T20:17:03.275Z,208
2022-08-04T20:18:46.640Z,209
2022-08-04T20:20:30.061Z,189
2022-08-04T20:22:13.448Z,219
2022-08-04T20:23:56.850Z,1
2022-08-04T20:25:40.217Z,1
2022-08-04T20:30:49.464Z,1
2022-08-04T20:32:32.889Z,0
2022-08-04T20:34:16.273Z,1
2022-08-04T20:35:59.631Z,1
2022-08-04T20:37:43.053Z,1
2022-08-04T20:39:26.447Z,1
2022-08-04T20:41:09.856Z,1
2022-08-04T20:44:36.310Z,1
2022-08-04T20:46:19.696Z,1
2022-08-04T20:48:03.100Z,1
2022-08-04T20:49:46.538Z,0
2022-08-04T20:51:29.891Z,1
2022-08-04T20:53:13.274Z,1
2022-08-04T20:54:56.686Z,1
2022-08-04T20:58:23.154Z,1
2022-08-04T21:00:06.595Z,1
2022-08-04T21:01:49.947Z,1
2022-08-04T21:03:33.342Z,1
2022-08-04T21:05:16.730Z,0
2022-08-04T21:07:00.159Z,1
2022-08-04T21:08:43.523Z,1
2022-08-04T21:10:26.972Z,1
2022-08-04T21:12:10.669Z,1
2022-08-04T21:13:54.059Z,1
2022-08-04T21:15:37.425Z,1
2022-08-04T21:17:20.819Z,1
2022-08-04T21:19:04.256Z,1
2022-08-04T21:20:47.621Z,1
2022-08-04T21:22:31.022Z,1
2022-08-04T21:25:57.515Z,1
2022-08-04T21:27:40.873Z,2
2022-08-04T21:29:24.329Z,1
2022-08-04T21:31:07.678Z,1
2022-08-04T21:32:51.067Z,1
2022-08-04T21:34:34.473Z,1
2022-08-04T21:36:17.862Z,1
2022-08-04T21:39:44.342Z,1
2022-08-04T21:41:27.743Z,1
2022-08-04T21:43:11.153Z,1
2022-08-04T21:44:54.536Z,1
2022-08-04T21:46:37.940Z,1
2022-08-04T21:48:21.376Z,1
2022-08-04T21:50:04.755Z,1
2022-08-04T21:53:31.207Z,1
2022-08-04T21:55:14.597Z,1
2022-08-04T21:56:58.017Z,1
2022-08-04T21:58:41.416Z,1
2022-08-04T22:00:24.789Z,1
2022-08-04T22:02:08.163Z,1
2022-08-04T22:03:51.550Z,0
2022-08-04T22:05:34.987Z,1
2022-08-04T22:07:18.652Z,0
2022-08-04T22:09:02.052Z,1
2022-08-04T22:10:45.441Z,0
2022-08-04T22:12:28.844Z,1
2022-08-04T22:14:12.247Z,1
2022-08-04T22:15:55.626Z,1
2022-08-04T22:17:39.032Z,1
2022-08-04T22:19:22.439Z,1
2022-08-04T22:21:06.142Z,1
2022-08-04T22:22:49.545Z,1
2022-08-04T22:24:32.942Z,1
2022-08-04T22:26:16.340Z,1
2022-08-04T22:27:59.757Z,1
2022-08-04T22:29:43.116Z,1
2022-08-04T22:31:26.530Z,1
2022-08-04T22:34:52.989Z,1
2022-08-04T22:36:36.407Z,1
2022-08-04T22:38:19.763Z,1
2022-08-04T22:40:03.204Z,1
2022-08-04T22:41:46.574Z,0
2022-08-04T22:43:29.977Z,1
2022-08-04T22:45:13.398Z,0
2022-08-04T22:48:39.895Z,1
2022-08-04T22:50:23.249Z,0
2022-08-04T22:52:06.673Z,1
2022-08-04T22:53:50.017Z,1
2022-08-04T22:55:33.430Z,1
2022-08-04T22:57:16.816Z,1
2022-08-04T22:59:00.247Z,1
2022-08-04T23:02:26.726Z,1
2022-08-04T23:04:10.135Z,1
2022-08-04T23:05:53.477Z,1
2022-08-04T23:07:36.874Z,1
2022-08-04T23:09:20.288Z,1
2022-08-04T23:11:03.705Z,1
2022-08-04T23:12:47.093Z,1
2022-08-04T23:14:30.462Z,1
2022-08-04T23:16:14.226Z,1
2022-08-04T23:17:57.560Z,1
2022-08-04T23:19:40.975Z,0
2022-08-04T23:21:24.346Z,0
2022-08-04T23:23:07.746Z,1
2022-08-04T23:24:51.141Z,0
2022-08-04T23:26:34.579Z,1
2022-08-04T23:30:01.026Z,1
2022-08-04T23:31:44.440Z,1
2022-08-04T23:33:27.797Z,1
2022-08-04T23:35:11.189Z,0
2022-08-04T23:36:54.621Z,0
2022-08-04T23:38:38.027Z,0
2022-08-04T23:40:21.399Z,1
2022-08-04T23:45:30.626Z,1
2022-08-04T23:47:14.069Z,1
2022-08-04T23:48:57.454Z,1
2022-08-04T23:50:40.830Z,1
2022-08-04T23:52:24.210Z,1
2022-08-04T23:54:07.635Z,1
2022-08-04T23:55:51.043Z,0
2022-08-04T23:59:17.498Z,1
